Terminal Aerodrome Forecast
Issued by NWS

Home | Current Version | Previous Version | Text Only | Print | Product List | Glossary On
Versions: 1 2 3 4 5 6 7 8 9 10 11 12
000
FTUS42 KTBW 022320
TAFPIE
TAF
KPIE 022320Z 0300/0324 25009KT P6SM SCT250
     FM030300 18005KT P6SM SCT090
     FM030900 19004KT P6SM SCT005 BKN015
     FM031500 23011KT P6SM SCT025 BKN070=

USA.gov is the U.S. government's official web portal to all federal, state and local government web resources and services.